sensor_id;sensor_type;location;lat;lon;timestamp;P1;durP1;ratioP1;P2;durP2;ratioP2
44658;SDS011;30378;50.186;8.644;2022-11-09T00:01:36;10.27;;;5.75;;
44658;SDS011;30378;50.186;8.644;2022-11-09T00:06:32;15.15;;;6.25;;
44658;SDS011;30378;50.186;8.644;2022-11-09T00:09:00;14.05;;;6.70;;
44658;SDS011;30378;50.186;8.644;2022-11-09T00:11:32;12.60;;;6.60;;
44658;SDS011;30378;50.186;8.644;2022-11-09T00:13:59;11.65;;;5.53;;
44658;SDS011;30378;50.186;8.644;2022-11-09T00:16:26;12.23;;;6.45;;
44658;SDS011;30378;50.186;8.644;2022-11-09T00:18:53;13.65;;;6.88;;
44658;SDS011;30378;50.186;8.644;2022-11-09T00:21:22;8.40;;;5.43;;
44658;SDS011;30378;50.186;8.644;2022-11-09T00:23:50;14.43;;;6.78;;
44658;SDS011;30378;50.186;8.644;2022-11-09T00:26:18;12.07;;;7.38;;
44658;SDS011;30378;50.186;8.644;2022-11-09T00:28:46;14.88;;;7.18;;
44658;SDS011;30378;50.186;8.644;2022-11-09T00:31:15;11.10;;;6.07;;
44658;SDS011;30378;50.186;8.644;2022-11-09T00:33:55;12.55;;;7.13;;
44658;SDS011;30378;50.186;8.644;2022-11-09T00:36:23;13.02;;;6.88;;
44658;SDS011;30378;50.186;8.644;2022-11-09T00:38:52;13.00;;;5.90;;
44658;SDS011;30378;50.186;8.644;2022-11-09T00:41:21;12.50;;;6.57;;
44658;SDS011;30378;50.186;8.644;2022-11-09T00:43:49;12.50;;;6.57;;
44658;SDS011;30378;50.186;8.644;2022-11-09T00:46:17;13.32;;;4.72;;
44658;SDS011;30378;50.186;8.644;2022-11-09T00:48:44;12.88;;;5.20;;
44658;SDS011;30378;50.186;8.644;2022-11-09T00:51:13;11.77;;;5.70;;
44658;SDS011;30378;50.186;8.644;2022-11-09T00:56:11;9.80;;;5.13;;
44658;SDS011;30378;50.186;8.644;2022-11-09T00:58:39;8.98;;;4.30;;
44658;SDS011;30378;50.186;8.644;2022-11-09T01:01:12;9.43;;;4.75;;
44658;SDS011;30378;50.186;8.644;2022-11-09T01:03:42;10.50;;;4.97;;
44658;SDS011;30378;50.186;8.644;2022-11-09T01:06:17;9.30;;;4.40;;
44658;SDS011;30378;50.186;8.644;2022-11-09T01:08:46;8.32;;;4.82;;
44658;SDS011;30378;50.186;8.644;2022-11-09T01:11:15;12.52;;;5.88;;
44658;SDS011;30378;50.186;8.644;2022-11-09T01:13:43;10.57;;;5.25;;
44658;SDS011;30378;50.186;8.644;2022-11-09T01:16:12;9.25;;;5.07;;
44658;SDS011;30378;50.186;8.644;2022-11-09T01:18:41;11.48;;;5.43;;
44658;SDS011;30378;50.186;8.644;2022-11-09T01:21:09;11.65;;;5.13;;
44658;SDS011;30378;50.186;8.644;2022-11-09T01:23:38;10.98;;;4.97;;
44658;SDS011;30378;50.186;8.644;2022-11-09T01:26:07;12.88;;;6.13;;
44658;SDS011;30378;50.186;8.644;2022-11-09T01:28:39;11.73;;;5.28;;
44658;SDS011;30378;50.186;8.644;2022-11-09T01:31:13;9.90;;;5.28;;
44658;SDS011;30378;50.186;8.644;2022-11-09T01:33:42;13.93;;;4.45;;
44658;SDS011;30378;50.186;8.644;2022-11-09T01:36:11;9.82;;;5.30;;
44658;SDS011;30378;50.186;8.644;2022-11-09T01:38:40;12.85;;;5.57;;
44658;SDS011;30378;50.186;8.644;2022-11-09T01:41:11;10.75;;;5.63;;
44658;SDS011;30378;50.186;8.644;2022-11-09T01:43:43;14.70;;;6.22;;
44658;SDS011;30378;50.186;8.644;2022-11-09T01:48:52;12.60;;;5.55;;
44658;SDS011;30378;50.186;8.644;2022-11-09T01:54:06;12.95;;;6.32;;
44658;SDS011;30378;50.186;8.644;2022-11-09T01:56:38;15.00;;;6.22;;
44658;SDS011;30378;50.186;8.644;2022-11-09T01:59:09;13.23;;;6.93;;
44658;SDS011;30378;50.186;8.644;2022-11-09T02:01:40;20.88;;;7.00;;
44658;SDS011;30378;50.186;8.644;2022-11-09T02:04:33;13.57;;;6.70;;
44658;SDS011;30378;50.186;8.644;2022-11-09T02:06:58;16.02;;;6.45;;
44658;SDS011;30378;50.186;8.644;2022-11-09T02:09:28;13.65;;;6.82;;
44658;SDS011;30378;50.186;8.644;2022-11-09T02:12:02;16.58;;;7.40;;
44658;SDS011;30378;50.186;8.644;2022-11-09T02:14:29;15.52;;;7.45;;
44658;SDS011;30378;50.186;8.644;2022-11-09T02:16:58;17.85;;;7.50;;
44658;SDS011;30378;50.186;8.644;2022-11-09T02:19:26;16.65;;;8.18;;
44658;SDS011;30378;50.186;8.644;2022-11-09T02:21:53;14.65;;;7.88;;
44658;SDS011;30378;50.186;8.644;2022-11-09T02:24:23;15.57;;;7.60;;
44658;SDS011;30378;50.186;8.644;2022-11-09T02:26:51;14.68;;;8.00;;
44658;SDS011;30378;50.186;8.644;2022-11-09T02:29:21;19.98;;;7.63;;
44658;SDS011;30378;50.186;8.644;2022-11-09T02:31:56;17.15;;;8.63;;
44658;SDS011;30378;50.186;8.644;2022-11-09T02:34:28;19.85;;;8.00;;
44658;SDS011;30378;50.186;8.644;2022-11-09T02:36:56;21.38;;;8.65;;
44658;SDS011;30378;50.186;8.644;2022-11-09T02:39:24;20.17;;;9.07;;
44658;SDS011;30378;50.186;8.644;2022-11-09T02:41:58;17.23;;;8.85;;
44658;SDS011;30378;50.186;8.644;2022-11-09T02:44:33;17.60;;;8.82;;
44658;SDS011;30378;50.186;8.644;2022-11-09T02:47:06;20.48;;;8.88;;
44658;SDS011;30378;50.186;8.644;2022-11-09T02:49:34;16.00;;;8.38;;
44658;SDS011;30378;50.186;8.644;2022-11-09T02:52:01;17.83;;;8.48;;
44658;SDS011;30378;50.186;8.644;2022-11-09T02:54:28;19.73;;;8.45;;
44658;SDS011;30378;50.186;8.644;2022-11-09T02:56:56;17.67;;;8.02;;
44658;SDS011;30378;50.186;8.644;2022-11-09T02:59:25;14.65;;;7.47;;
44658;SDS011;30378;50.186;8.644;2022-11-09T03:01:53;22.13;;;9.32;;
44658;SDS011;30378;50.186;8.644;2022-11-09T03:04:20;21.45;;;8.50;;
44658;SDS011;30378;50.186;8.644;2022-11-09T03:06:48;15.82;;;7.40;;
44658;SDS011;30378;50.186;8.644;2022-11-09T03:09:17;17.38;;;8.35;;
44658;SDS011;30378;50.186;8.644;2022-11-09T03:11:45;16.52;;;8.15;;
44658;SDS011;30378;50.186;8.644;2022-11-09T03:14:14;20.42;;;8.20;;
44658;SDS011;30378;50.186;8.644;2022-11-09T03:16:49;23.83;;;9.48;;
44658;SDS011;30378;50.186;8.644;2022-11-09T03:19:17;16.27;;;7.75;;
44658;SDS011;30378;50.186;8.644;2022-11-09T03:21:47;17.15;;;7.43;;
44658;SDS011;30378;50.186;8.644;2022-11-09T03:24:18;15.82;;;8.32;;
44658;SDS011;30378;50.186;8.644;2022-11-09T03:26:45;16.17;;;8.07;;
44658;SDS011;30378;50.186;8.644;2022-11-09T03:29:12;19.00;;;8.32;;
44658;SDS011;30378;50.186;8.644;2022-11-09T03:31:40;15.07;;;6.70;;
44658;SDS011;30378;50.186;8.644;2022-11-09T03:34:08;17.23;;;7.47;;
44658;SDS011;30378;50.186;8.644;2022-11-09T03:36:37;17.17;;;7.25;;
44658;SDS011;30378;50.186;8.644;2022-11-09T03:39:04;18.08;;;7.03;;
44658;SDS011;30378;50.186;8.644;2022-11-09T03:41:32;17.17;;;7.95;;
44658;SDS011;30378;50.186;8.644;2022-11-09T03:44:00;16.25;;;7.78;;
44658;SDS011;30378;50.186;8.644;2022-11-09T03:46:28;22.85;;;9.05;;
44658;SDS011;30378;50.186;8.644;2022-11-09T03:51:22;20.20;;;8.30;;
44658;SDS011;30378;50.186;8.644;2022-11-09T03:53:49;20.45;;;8.85;;
44658;SDS011;30378;50.186;8.644;2022-11-09T03:58:43;20.77;;;8.55;;
44658;SDS011;30378;50.186;8.644;2022-11-09T04:01:10;19.83;;;9.25;;
44658;SDS011;30378;50.186;8.644;2022-11-09T04:03:37;19.58;;;8.98;;
44658;SDS011;30378;50.186;8.644;2022-11-09T04:06:04;19.90;;;7.82;;
44658;SDS011;30378;50.186;8.644;2022-11-09T04:08:31;21.60;;;8.85;;
44658;SDS011;30378;50.186;8.644;2022-11-09T04:10:59;22.08;;;9.10;;
44658;SDS011;30378;50.186;8.644;2022-11-09T04:13:26;16.63;;;7.50;;
44658;SDS011;30378;50.186;8.644;2022-11-09T04:15:53;19.45;;;8.15;;
44658;SDS011;30378;50.186;8.644;2022-11-09T04:20:47;20.50;;;9.73;;
44658;SDS011;30378;50.186;8.644;2022-11-09T04:23:14;21.63;;;9.70;;
44658;SDS011;30378;50.186;8.644;2022-11-09T04:25:41;23.75;;;9.52;;
44658;SDS011;30378;50.186;8.644;2022-11-09T04:28:17;19.80;;;9.27;;
44658;SDS011;30378;50.186;8.644;2022-11-09T04:30:45;21.27;;;9.20;;
44658;SDS011;30378;50.186;8.644;2022-11-09T04:33:12;21.50;;;10.45;;
44658;SDS011;30378;50.186;8.644;2022-11-09T04:35:39;19.88;;;8.23;;
44658;SDS011;30378;50.186;8.644;2022-11-09T04:38:06;19.60;;;8.45;;
44658;SDS011;30378;50.186;8.644;2022-11-09T04:40:40;19.80;;;7.88;;
44658;SDS011;30378;50.186;8.644;2022-11-09T04:43:09;17.05;;;8.52;;
44658;SDS011;30378;50.186;8.644;2022-11-09T04:45:38;19.17;;;9.50;;
44658;SDS011;30378;50.186;8.644;2022-11-09T04:48:06;20.00;;;8.70;;
44658;SDS011;30378;50.186;8.644;2022-11-09T04:50:33;19.63;;;7.75;;
44658;SDS011;30378;50.186;8.644;2022-11-09T04:53:08;19.85;;;8.73;;
44658;SDS011;30378;50.186;8.644;2022-11-09T04:55:37;20.40;;;9.18;;
44658;SDS011;30378;50.186;8.644;2022-11-09T04:58:05;16.70;;;8.30;;
44658;SDS011;30378;50.186;8.644;2022-11-09T05:00:33;16.05;;;8.38;;
44658;SDS011;30378;50.186;8.644;2022-11-09T05:03:02;17.25;;;8.40;;
44658;SDS011;30378;50.186;8.644;2022-11-09T05:05:33;14.95;;;7.38;;
44658;SDS011;30378;50.186;8.644;2022-11-09T05:08:02;15.55;;;7.90;;
44658;SDS011;30378;50.186;8.644;2022-11-09T05:10:30;18.75;;;7.63;;
44658;SDS011;30378;50.186;8.644;2022-11-09T05:13:03;15.98;;;7.60;;
44658;SDS011;30378;50.186;8.644;2022-11-09T05:15:31;17.58;;;7.65;;
44658;SDS011;30378;50.186;8.644;2022-11-09T05:18:00;15.88;;;7.55;;
44658;SDS011;30378;50.186;8.644;2022-11-09T05:20:30;15.90;;;6.63;;
44658;SDS011;30378;50.186;8.644;2022-11-09T05:22:57;17.35;;;6.85;;
44658;SDS011;30378;50.186;8.644;2022-11-09T05:25:44;15.00;;;6.25;;
44658;SDS011;30378;50.186;8.644;2022-11-09T05:28:11;19.52;;;7.47;;
44658;SDS011;30378;50.186;8.644;2022-11-09T05:30:39;16.55;;;7.30;;
44658;SDS011;30378;50.186;8.644;2022-11-09T05:33:06;16.83;;;8.13;;
44658;SDS011;30378;50.186;8.644;2022-11-09T05:35:33;14.32;;;6.70;;
44658;SDS011;30378;50.186;8.644;2022-11-09T05:38:00;16.63;;;7.97;;
44658;SDS011;30378;50.186;8.644;2022-11-09T05:40:27;17.88;;;7.30;;
44658;SDS011;30378;50.186;8.644;2022-11-09T05:42:54;18.50;;;7.70;;
44658;SDS011;30378;50.186;8.644;2022-11-09T05:45:23;15.25;;;7.85;;
44658;SDS011;30378;50.186;8.644;2022-11-09T05:48:07;16.27;;;8.30;;
44658;SDS011;30378;50.186;8.644;2022-11-09T05:50:34;16.00;;;7.57;;
44658;SDS011;30378;50.186;8.644;2022-11-09T05:53:21;16.58;;;7.95;;
44658;SDS011;30378;50.186;8.644;2022-11-09T05:55:48;17.67;;;8.07;;
44658;SDS011;30378;50.186;8.644;2022-11-09T06:00:42;14.48;;;6.78;;
44658;SDS011;30378;50.186;8.644;2022-11-09T06:05:37;18.10;;;8.07;;
44658;SDS011;30378;50.186;8.644;2022-11-09T06:08:06;17.27;;;7.85;;
44658;SDS011;30378;50.186;8.644;2022-11-09T06:10:35;19.10;;;8.85;;
44658;SDS011;30378;50.186;8.644;2022-11-09T06:13:02;20.63;;;8.85;;
44658;SDS011;30378;50.186;8.644;2022-11-09T06:15:29;20.60;;;9.68;;
44658;SDS011;30378;50.186;8.644;2022-11-09T06:17:57;20.48;;;9.23;;
44658;SDS011;30378;50.186;8.644;2022-11-09T06:20:25;22.25;;;9.23;;
44658;SDS011;30378;50.186;8.644;2022-11-09T06:22:53;21.77;;;8.85;;
44658;SDS011;30378;50.186;8.644;2022-11-09T06:25:25;20.15;;;10.93;;
44658;SDS011;30378;50.186;8.644;2022-11-09T06:27:53;21.55;;;10.55;;
44658;SDS011;30378;50.186;8.644;2022-11-09T06:30:21;24.45;;;11.70;;
44658;SDS011;30378;50.186;8.644;2022-11-09T06:32:49;24.27;;;10.95;;
44658;SDS011;30378;50.186;8.644;2022-11-09T06:35:16;22.80;;;11.07;;
44658;SDS011;30378;50.186;8.644;2022-11-09T06:40:10;23.70;;;11.63;;
44658;SDS011;30378;50.186;8.644;2022-11-09T06:42:38;28.90;;;12.60;;
44658;SDS011;30378;50.186;8.644;2022-11-09T06:45:05;27.83;;;12.07;;
44658;SDS011;30378;50.186;8.644;2022-11-09T06:47:32;31.23;;;13.02;;
44658;SDS011;30378;50.186;8.644;2022-11-09T06:52:26;24.25;;;12.48;;
44658;SDS011;30378;50.186;8.644;2022-11-09T06:54:53;28.60;;;14.00;;
44658;SDS011;30378;50.186;8.644;2022-11-09T06:59:47;26.58;;;13.27;;
44658;SDS011;30378;50.186;8.644;2022-11-09T07:02:15;29.58;;;14.02;;
44658;SDS011;30378;50.186;8.644;2022-11-09T07:04:45;27.02;;;12.73;;
44658;SDS011;30378;50.186;8.644;2022-11-09T07:09:39;28.02;;;12.93;;
44658;SDS011;30378;50.186;8.644;2022-11-09T07:14:34;31.50;;;14.63;;
44658;SDS011;30378;50.186;8.644;2022-11-09T07:17:01;28.10;;;13.13;;
44658;SDS011;30378;50.186;8.644;2022-11-09T07:21:55;29.33;;;12.80;;
44658;SDS011;30378;50.186;8.644;2022-11-09T07:24:23;26.52;;;13.20;;
44658;SDS011;30378;50.186;8.644;2022-11-09T07:26:50;30.13;;;13.73;;
44658;SDS011;30378;50.186;8.644;2022-11-09T07:29:17;30.50;;;12.88;;
44658;SDS011;30378;50.186;8.644;2022-11-09T07:31:44;26.20;;;12.35;;
44658;SDS011;30378;50.186;8.644;2022-11-09T07:34:12;26.23;;;12.13;;
44658;SDS011;30378;50.186;8.644;2022-11-09T07:36:39;30.35;;;13.45;;
44658;SDS011;30378;50.186;8.644;2022-11-09T07:39:06;26.50;;;12.80;;
44658;SDS011;30378;50.186;8.644;2022-11-09T07:44:00;25.73;;;12.65;;
44658;SDS011;30378;50.186;8.644;2022-11-09T07:48:54;27.50;;;12.18;;
44658;SDS011;30378;50.186;8.644;2022-11-09T07:53:48;23.73;;;11.57;;
44658;SDS011;30378;50.186;8.644;2022-11-09T07:58:43;21.83;;;10.95;;
44658;SDS011;30378;50.186;8.644;2022-11-09T08:01:10;19.38;;;10.23;;
44658;SDS011;30378;50.186;8.644;2022-11-09T08:03:37;20.27;;;10.23;;
44658;SDS011;30378;50.186;8.644;2022-11-09T08:06:04;21.80;;;10.38;;
44658;SDS011;30378;50.186;8.644;2022-11-09T08:08:31;20.10;;;10.60;;
44658;SDS011;30378;50.186;8.644;2022-11-09T08:10:58;22.00;;;9.63;;
44658;SDS011;30378;50.186;8.644;2022-11-09T08:13:25;18.60;;;9.63;;
44658;SDS011;30378;50.186;8.644;2022-11-09T08:15:52;18.15;;;9.55;;
44658;SDS011;30378;50.186;8.644;2022-11-09T08:18:19;19.33;;;9.35;;
44658;SDS011;30378;50.186;8.644;2022-11-09T08:20:47;21.38;;;8.77;;
44658;SDS011;30378;50.186;8.644;2022-11-09T08:23:15;15.15;;;7.93;;
44658;SDS011;30378;50.186;8.644;2022-11-09T08:25:44;18.50;;;8.63;;
44658;SDS011;30378;50.186;8.644;2022-11-09T08:28:11;16.05;;;9.00;;
44658;SDS011;30378;50.186;8.644;2022-11-09T08:30:40;17.00;;;9.05;;
44658;SDS011;30378;50.186;8.644;2022-11-09T08:33:08;16.08;;;8.85;;
44658;SDS011;30378;50.186;8.644;2022-11-09T08:38:02;18.05;;;8.98;;
44658;SDS011;30378;50.186;8.644;2022-11-09T08:40:31;15.55;;;8.18;;
44658;SDS011;30378;50.186;8.644;2022-11-09T08:42:59;20.73;;;9.02;;
44658;SDS011;30378;50.186;8.644;2022-11-09T08:45:28;19.30;;;9.93;;
44658;SDS011;30378;50.186;8.644;2022-11-09T08:47:58;16.67;;;9.18;;
44658;SDS011;30378;50.186;8.644;2022-11-09T08:50:26;20.90;;;9.05;;
44658;SDS011;30378;50.186;8.644;2022-11-09T08:52:54;18.10;;;8.88;;
44658;SDS011;30378;50.186;8.644;2022-11-09T08:55:21;16.73;;;9.27;;
44658;SDS011;30378;50.186;8.644;2022-11-09T08:57:52;13.85;;;6.93;;
44658;SDS011;30378;50.186;8.644;2022-11-09T09:00:22;12.63;;;8.00;;
44658;SDS011;30378;50.186;8.644;2022-11-09T09:02:49;13.90;;;6.95;;
44658;SDS011;30378;50.186;8.644;2022-11-09T09:05:16;15.88;;;7.00;;
44658;SDS011;30378;50.186;8.644;2022-11-09T09:07:43;17.42;;;7.88;;
44658;SDS011;30378;50.186;8.644;2022-11-09T09:12:37;10.48;;;6.25;;
44658;SDS011;30378;50.186;8.644;2022-11-09T09:17:31;8.15;;;4.90;;
44658;SDS011;30378;50.186;8.644;2022-11-09T09:20:00;11.88;;;5.25;;
44658;SDS011;30378;50.186;8.644;2022-11-09T09:22:28;10.70;;;5.10;;
44658;SDS011;30378;50.186;8.644;2022-11-09T09:27:21;10.05;;;5.85;;
44658;SDS011;30378;50.186;8.644;2022-11-09T09:29:48;15.93;;;6.35;;
44658;SDS011;30378;50.186;8.644;2022-11-09T09:34:42;8.70;;;5.55;;
44658;SDS011;30378;50.186;8.644;2022-11-09T09:39:36;9.60;;;4.47;;
44658;SDS011;30378;50.186;8.644;2022-11-09T09:47:22;9.70;;;5.20;;
44658;SDS011;30378;50.186;8.644;2022-11-09T09:49:57;6.32;;;4.00;;
44658;SDS011;30378;50.186;8.644;2022-11-09T09:52:36;9.18;;;4.75;;
44658;SDS011;30378;50.186;8.644;2022-11-09T09:55:28;6.38;;;4.25;;
44658;SDS011;30378;50.186;8.644;2022-11-09T09:58:06;6.85;;;4.65;;
44658;SDS011;30378;50.186;8.644;2022-11-09T10:00:38;6.50;;;4.20;;
44658;SDS011;30378;50.186;8.644;2022-11-09T10:03:17;8.13;;;4.38;;
44658;SDS011;30378;50.186;8.644;2022-11-09T10:05:57;5.65;;;3.30;;
44658;SDS011;30378;50.186;8.644;2022-11-09T10:14:20;5.82;;;2.53;;
44658;SDS011;30378;50.186;8.644;2022-11-09T10:25:14;5.55;;;2.38;;
44658;SDS011;30378;50.186;8.644;2022-11-09T10:27:58;4.20;;;2.65;;
44658;SDS011;30378;50.186;8.644;2022-11-09T10:30:28;3.40;;;1.73;;
44658;SDS011;30378;50.186;8.644;2022-11-09T10:32:58;3.42;;;2.17;;
44658;SDS011;30378;50.186;8.644;2022-11-09T10:35:33;3.53;;;2.25;;
44658;SDS011;30378;50.186;8.644;2022-11-09T10:38:03;3.22;;;1.13;;
44658;SDS011;30378;50.186;8.644;2022-11-09T10:43:19;3.60;;;1.23;;
44658;SDS011;30378;50.186;8.644;2022-11-09T10:46:05;3.88;;;1.38;;
44658;SDS011;30378;50.186;8.644;2022-11-09T10:48:52;3.65;;;1.50;;
44658;SDS011;30378;50.186;8.644;2022-11-09T10:51:40;2.53;;;1.95;;
44658;SDS011;30378;50.186;8.644;2022-11-09T10:54:30;2.40;;;1.25;;
44658;SDS011;30378;50.186;8.644;2022-11-09T10:57:20;3.50;;;1.48;;
44658;SDS011;30378;50.186;8.644;2022-11-09T11:00:12;3.15;;;0.88;;
44658;SDS011;30378;50.186;8.644;2022-11-09T11:03:08;2.97;;;1.17;;
44658;SDS011;30378;50.186;8.644;2022-11-09T11:05:59;1.45;;;0.75;;
44658;SDS011;30378;50.186;8.644;2022-11-09T11:12:04;1.33;;;0.88;;
44658;SDS011;30378;50.186;8.644;2022-11-09T11:18:26;3.05;;;0.80;;
44658;SDS011;30378;50.186;8.644;2022-11-09T11:21:12;3.25;;;1.08;;
44658;SDS011;30378;50.186;8.644;2022-11-09T11:27:05;2.83;;;1.17;;
44658;SDS011;30378;50.186;8.644;2022-11-09T11:32:58;4.00;;;0.68;;
44658;SDS011;30378;50.186;8.644;2022-11-09T11:35:48;2.00;;;0.80;;
44658;SDS011;30378;50.186;8.644;2022-11-09T11:38:38;2.80;;;0.95;;
44658;SDS011;30378;50.186;8.644;2022-11-09T11:41:40;3.30;;;1.13;;
44658;SDS011;30378;50.186;8.644;2022-11-09T11:45:14;2.47;;;0.63;;
44658;SDS011;30378;50.186;8.644;2022-11-09T11:51:41;2.80;;;0.60;;
44658;SDS011;30378;50.186;8.644;2022-11-09T11:54:53;2.22;;;0.95;;
44658;SDS011;30378;50.186;8.644;2022-11-09T12:03:55;2.75;;;0.95;;
44658;SDS011;30378;50.186;8.644;2022-11-09T12:10:19;3.75;;;0.50;;
44658;SDS011;30378;50.186;8.644;2022-11-09T12:16:47;3.30;;;1.42;;
44658;SDS011;30378;50.186;8.644;2022-11-09T12:29:16;2.78;;;0.95;;
44658;SDS011;30378;50.186;8.644;2022-11-09T12:35:21;1.92;;;0.70;;
44658;SDS011;30378;50.186;8.644;2022-11-09T12:38:24;3.38;;;0.82;;
44658;SDS011;30378;50.186;8.644;2022-11-09T12:41:14;4.03;;;0.45;;
44658;SDS011;30378;50.186;8.644;2022-11-09T12:44:05;2.55;;;0.60;;
44658;SDS011;30378;50.186;8.644;2022-11-09T12:47:09;1.50;;;0.70;;
44658;SDS011;30378;50.186;8.644;2022-11-09T12:50:04;1.85;;;0.55;;
44658;SDS011;30378;50.186;8.644;2022-11-09T12:52:50;3.22;;;0.73;;
44658;SDS011;30378;50.186;8.644;2022-11-09T12:55:47;1.33;;;0.77;;
44658;SDS011;30378;50.186;8.644;2022-11-09T13:05:36;2.10;;;0.40;;
44658;SDS011;30378;50.186;8.644;2022-11-09T13:08:24;2.88;;;1.02;;
44658;SDS011;30378;50.186;8.644;2022-11-09T13:11:17;2.22;;;0.35;;
44658;SDS011;30378;50.186;8.644;2022-11-09T13:23:41;2.72;;;0.70;;
44658;SDS011;30378;50.186;8.644;2022-11-09T13:32:25;1.75;;;0.68;;
44658;SDS011;30378;50.186;8.644;2022-11-09T13:38:29;1.85;;;0.80;;
44658;SDS011;30378;50.186;8.644;2022-11-09T13:47:02;7.13;;;0.85;;
44658;SDS011;30378;50.186;8.644;2022-11-09T13:49:49;4.50;;;0.98;;
44658;SDS011;30378;50.186;8.644;2022-11-09T13:52:46;1.52;;;0.75;;
44658;SDS011;30378;50.186;8.644;2022-11-09T13:58:26;3.22;;;1.02;;
44658;SDS011;30378;50.186;8.644;2022-11-09T14:01:33;3.95;;;1.15;;
44658;SDS011;30378;50.186;8.644;2022-11-09T14:04:23;4.70;;;0.63;;
44658;SDS011;30378;50.186;8.644;2022-11-09T14:07:28;2.92;;;0.95;;
44658;SDS011;30378;50.186;8.644;2022-11-09T14:13:23;2.28;;;0.80;;
44658;SDS011;30378;50.186;8.644;2022-11-09T14:16:39;1.73;;;0.60;;
44658;SDS011;30378;50.186;8.644;2022-11-09T14:22:37;4.65;;;1.17;;
44658;SDS011;30378;50.186;8.644;2022-11-09T14:25:24;1.88;;;0.90;;
44658;SDS011;30378;50.186;8.644;2022-11-09T14:28:17;2.03;;;0.73;;
44658;SDS011;30378;50.186;8.644;2022-11-09T14:31:08;5.03;;;0.90;;
44658;SDS011;30378;50.186;8.644;2022-11-09T14:34:13;3.72;;;0.80;;
44658;SDS011;30378;50.186;8.644;2022-11-09T14:39:49;2.67;;;0.57;;
44658;SDS011;30378;50.186;8.644;2022-11-09T14:42:36;3.35;;;1.58;;
44658;SDS011;30378;50.186;8.644;2022-11-09T14:45:23;2.90;;;0.55;;
44658;SDS011;30378;50.186;8.644;2022-11-09T14:48:14;4.55;;;0.60;;
44658;SDS011;30378;50.186;8.644;2022-11-09T14:51:02;2.55;;;0.88;;
44658;SDS011;30378;50.186;8.644;2022-11-09T14:53:52;2.53;;;1.00;;
44658;SDS011;30378;50.186;8.644;2022-11-09T14:56:37;5.28;;;1.05;;
44658;SDS011;30378;50.186;8.644;2022-11-09T14:59:32;4.18;;;0.50;;
44658;SDS011;30378;50.186;8.644;2022-11-09T15:02:20;1.80;;;0.88;;
44658;SDS011;30378;50.186;8.644;2022-11-09T15:05:26;2.53;;;1.48;;
44658;SDS011;30378;50.186;8.644;2022-11-09T15:08:23;4.18;;;1.00;;
44658;SDS011;30378;50.186;8.644;2022-11-09T15:11:08;3.83;;;0.82;;
44658;SDS011;30378;50.186;8.644;2022-11-09T15:13:54;2.60;;;1.00;;
44658;SDS011;30378;50.186;8.644;2022-11-09T15:16:40;2.67;;;0.98;;
44658;SDS011;30378;50.186;8.644;2022-11-09T15:19:33;2.15;;;0.90;;
44658;SDS011;30378;50.186;8.644;2022-11-09T15:28:42;3.28;;;1.00;;
44658;SDS011;30378;50.186;8.644;2022-11-09T15:31:29;3.85;;;0.98;;
44658;SDS011;30378;50.186;8.644;2022-11-09T15:34:22;3.25;;;1.27;;
44658;SDS011;30378;50.186;8.644;2022-11-09T15:37:21;3.95;;;1.15;;
44658;SDS011;30378;50.186;8.644;2022-11-09T15:40:09;5.13;;;1.15;;
44658;SDS011;30378;50.186;8.644;2022-11-09T15:42:56;3.60;;;1.20;;
44658;SDS011;30378;50.186;8.644;2022-11-09T15:45:42;2.42;;;1.13;;
44658;SDS011;30378;50.186;8.644;2022-11-09T15:48:27;3.70;;;1.13;;
44658;SDS011;30378;50.186;8.644;2022-11-09T15:51:13;4.28;;;1.65;;
44658;SDS011;30378;50.186;8.644;2022-11-09T15:53:59;3.08;;;1.30;;
44658;SDS011;30378;50.186;8.644;2022-11-09T15:56:45;3.80;;;1.40;;
44658;SDS011;30378;50.186;8.644;2022-11-09T15:59:31;2.83;;;0.90;;
44658;SDS011;30378;50.186;8.644;2022-11-09T16:02:17;6.00;;;1.30;;
44658;SDS011;30378;50.186;8.644;2022-11-09T16:05:03;2.63;;;1.10;;
44658;SDS011;30378;50.186;8.644;2022-11-09T16:07:49;1.98;;;0.82;;
44658;SDS011;30378;50.186;8.644;2022-11-09T16:10:36;4.53;;;1.45;;
44658;SDS011;30378;50.186;8.644;2022-11-09T16:13:24;2.10;;;0.88;;
44658;SDS011;30378;50.186;8.644;2022-11-09T16:16:10;2.70;;;0.95;;
44658;SDS011;30378;50.186;8.644;2022-11-09T16:18:56;1.83;;;0.85;;
44658;SDS011;30378;50.186;8.644;2022-11-09T16:21:42;4.50;;;0.60;;
44658;SDS011;30378;50.186;8.644;2022-11-09T16:24:28;3.30;;;1.17;;
44658;SDS011;30378;50.186;8.644;2022-11-09T16:27:13;2.53;;;0.95;;
44658;SDS011;30378;50.186;8.644;2022-11-09T16:30:12;2.75;;;0.80;;
44658;SDS011;30378;50.186;8.644;2022-11-09T16:32:59;3.22;;;1.27;;
44658;SDS011;30378;50.186;8.644;2022-11-09T16:35:44;6.30;;;0.80;;
44658;SDS011;30378;50.186;8.644;2022-11-09T16:38:31;3.92;;;1.40;;
44658;SDS011;30378;50.186;8.644;2022-11-09T16:44:08;3.13;;;0.82;;
44658;SDS011;30378;50.186;8.644;2022-11-09T16:46:55;1.92;;;0.90;;
44658;SDS011;30378;50.186;8.644;2022-11-09T16:49:40;1.85;;;0.70;;
44658;SDS011;30378;50.186;8.644;2022-11-09T16:52:25;3.70;;;1.08;;
44658;SDS011;30378;50.186;8.644;2022-11-09T16:55:11;2.30;;;1.08;;
44658;SDS011;30378;50.186;8.644;2022-11-09T16:57:56;5.18;;;1.42;;
44658;SDS011;30378;50.186;8.644;2022-11-09T17:00:42;2.38;;;1.23;;
44658;SDS011;30378;50.186;8.644;2022-11-09T17:06:25;2.92;;;1.52;;
44658;SDS011;30378;50.186;8.644;2022-11-09T17:09:12;4.70;;;1.35;;
44658;SDS011;30378;50.186;8.644;2022-11-09T17:11:58;2.28;;;0.80;;
44658;SDS011;30378;50.186;8.644;2022-11-09T17:14:43;4.30;;;1.52;;
44658;SDS011;30378;50.186;8.644;2022-11-09T17:17:29;3.05;;;1.35;;
44658;SDS011;30378;50.186;8.644;2022-11-09T17:20:14;3.75;;;1.52;;
44658;SDS011;30378;50.186;8.644;2022-11-09T17:23:00;5.03;;;1.40;;
44658;SDS011;30378;50.186;8.644;2022-11-09T17:25:55;3.63;;;1.30;;
44658;SDS011;30378;50.186;8.644;2022-11-09T17:28:48;4.32;;;1.75;;
44658;SDS011;30378;50.186;8.644;2022-11-09T17:31:34;3.17;;;1.70;;
44658;SDS011;30378;50.186;8.644;2022-11-09T17:34:21;5.65;;;1.88;;
44658;SDS011;30378;50.186;8.644;2022-11-09T17:37:06;4.60;;;1.75;;
44658;SDS011;30378;50.186;8.644;2022-11-09T17:39:52;4.78;;;1.50;;
44658;SDS011;30378;50.186;8.644;2022-11-09T17:42:37;3.53;;;1.90;;
44658;SDS011;30378;50.186;8.644;2022-11-09T17:48:09;5.35;;;1.77;;
44658;SDS011;30378;50.186;8.644;2022-11-09T17:50:55;3.28;;;1.08;;
44658;SDS011;30378;50.186;8.644;2022-11-09T17:53:42;3.03;;;1.40;;
44658;SDS011;30378;50.186;8.644;2022-11-09T17:56:28;4.20;;;1.30;;
44658;SDS011;30378;50.186;8.644;2022-11-09T17:59:15;4.88;;;1.45;;
44658;SDS011;30378;50.186;8.644;2022-11-09T18:02:00;3.08;;;1.38;;
44658;SDS011;30378;50.186;8.644;2022-11-09T18:04:45;3.22;;;1.40;;
44658;SDS011;30378;50.186;8.644;2022-11-09T18:07:31;3.13;;;1.50;;
44658;SDS011;30378;50.186;8.644;2022-11-09T18:10:17;2.65;;;1.52;;
44658;SDS011;30378;50.186;8.644;2022-11-09T18:13:03;4.88;;;2.10;;
44658;SDS011;30378;50.186;8.644;2022-11-09T18:15:49;3.67;;;1.98;;
44658;SDS011;30378;50.186;8.644;2022-11-09T18:18:35;3.60;;;1.70;;
44658;SDS011;30378;50.186;8.644;2022-11-09T18:21:20;4.05;;;2.28;;
44658;SDS011;30378;50.186;8.644;2022-11-09T18:24:07;4.70;;;2.80;;
44658;SDS011;30378;50.186;8.644;2022-11-09T18:26:53;5.80;;;2.78;;
44658;SDS011;30378;50.186;8.644;2022-11-09T18:29:38;10.02;;;2.50;;
44658;SDS011;30378;50.186;8.644;2022-11-09T18:32:24;4.20;;;2.00;;
44658;SDS011;30378;50.186;8.644;2022-11-09T18:35:09;7.72;;;2.45;;
44658;SDS011;30378;50.186;8.644;2022-11-09T18:37:54;7.63;;;2.10;;
44658;SDS011;30378;50.186;8.644;2022-11-09T18:40:40;4.22;;;2.10;;